sensor_id;sensor_type;location;lat;lon;timestamp;P1;durP1;ratioP1;P2;durP2;ratioP2
70605;SDS011;58173;52.500;5.494;2023-04-03T16:05:17;3.88;;;1.20;;
70605;SDS011;58173;52.500;5.494;2023-04-03T16:07:45;4.43;;;1.05;;
70605;SDS011;58173;52.500;5.494;2023-04-03T16:10:13;5.35;;;1.20;;
70605;SDS011;58173;52.500;5.494;2023-04-03T16:12:40;6.90;;;1.40;;
70605;SDS011;58173;52.500;5.494;2023-04-03T16:15:07;3.15;;;1.25;;
70605;SDS011;58173;52.500;5.494;2023-04-03T16:17:36;5.45;;;1.40;;
70605;SDS011;58173;52.500;5.494;2023-04-03T16:20:04;4.20;;;1.20;;
70605;SDS011;58173;52.500;5.494;2023-04-03T16:22:32;2.75;;;1.20;;
70605;SDS011;58173;52.500;5.494;2023-04-03T16:24:59;4.30;;;1.50;;
70605;SDS011;58173;52.500;5.494;2023-04-03T16:27:27;5.68;;;1.23;;
70605;SDS011;58173;52.500;5.494;2023-04-03T16:29:56;4.07;;;1.20;;
70605;SDS011;58173;52.500;5.494;2023-04-03T16:32:23;4.55;;;1.30;;
70605;SDS011;58173;52.500;5.494;2023-04-03T16:34:52;4.45;;;1.35;;
70605;SDS011;58173;52.500;5.494;2023-04-03T16:37:19;1.83;;;1.02;;
70605;SDS011;58173;52.500;5.494;2023-04-03T16:39:46;2.35;;;1.02;;
70605;SDS011;58173;52.500;5.494;2023-04-03T16:42:14;3.17;;;1.40;;
70605;SDS011;58173;52.500;5.494;2023-04-03T16:44:41;4.60;;;1.33;;
70605;SDS011;58173;52.500;5.494;2023-04-03T16:47:09;4.20;;;1.15;;
70605;SDS011;58173;52.500;5.494;2023-04-03T16:49:36;4.65;;;1.40;;
70605;SDS011;58173;52.500;5.494;2023-04-03T16:52:05;4.70;;;1.30;;
70605;SDS011;58173;52.500;5.494;2023-04-03T16:54:32;3.75;;;1.30;;
70605;SDS011;58173;52.500;5.494;2023-04-03T16:56:59;4.97;;;1.58;;
70605;SDS011;58173;52.500;5.494;2023-04-03T16:59:26;4.10;;;1.50;;
70605;SDS011;58173;52.500;5.494;2023-04-03T17:01:53;4.72;;;1.40;;
70605;SDS011;58173;52.500;5.494;2023-04-03T17:04:20;4.07;;;1.20;;
70605;SDS011;58173;52.500;5.494;2023-04-03T17:06:48;3.47;;;1.25;;
70605;SDS011;58173;52.500;5.494;2023-04-03T17:09:15;3.38;;;1.20;;
70605;SDS011;58173;52.500;5.494;2023-04-03T17:11:42;4.22;;;1.50;;
70605;SDS011;58173;52.500;5.494;2023-04-03T17:14:13;4.10;;;1.25;;
70605;SDS011;58173;52.500;5.494;2023-04-03T17:16:41;4.35;;;1.48;;
70605;SDS011;58173;52.500;5.494;2023-04-03T17:19:08;4.22;;;1.50;;
70605;SDS011;58173;52.500;5.494;2023-04-03T17:21:35;4.68;;;1.38;;
70605;SDS011;58173;52.500;5.494;2023-04-03T17:24:03;3.95;;;1.40;;
70605;SDS011;58173;52.500;5.494;2023-04-03T17:26:34;4.53;;;1.30;;
70605;SDS011;58173;52.500;5.494;2023-04-03T17:29:03;4.15;;;1.63;;
70605;SDS011;58173;52.500;5.494;2023-04-03T17:31:30;5.47;;;1.55;;
70605;SDS011;58173;52.500;5.494;2023-04-03T17:33:57;8.20;;;1.70;;
70605;SDS011;58173;52.500;5.494;2023-04-03T17:36:30;6.30;;;1.85;;
70605;SDS011;58173;52.500;5.494;2023-04-03T17:38:58;5.13;;;1.45;;
70605;SDS011;58173;52.500;5.494;2023-04-03T17:41:25;4.07;;;1.27;;
70605;SDS011;58173;52.500;5.494;2023-04-03T17:43:52;4.00;;;1.40;;
70605;SDS011;58173;52.500;5.494;2023-04-03T17:46:23;4.30;;;1.42;;
70605;SDS011;58173;52.500;5.494;2023-04-03T17:48:51;5.90;;;1.65;;
70605;SDS011;58173;52.500;5.494;2023-04-03T17:51:19;6.13;;;1.45;;
70605;SDS011;58173;52.500;5.494;2023-04-03T17:53:47;8.48;;;2.03;;
70605;SDS011;58173;52.500;5.494;2023-04-03T17:56:15;7.47;;;1.80;;
70605;SDS011;58173;52.500;5.494;2023-04-03T17:58:43;7.13;;;1.90;;
70605;SDS011;58173;52.500;5.494;2023-04-03T18:01:12;7.57;;;1.83;;
70605;SDS011;58173;52.500;5.494;2023-04-03T18:03:40;6.50;;;1.88;;
70605;SDS011;58173;52.500;5.494;2023-04-03T18:06:08;9.15;;;2.03;;
70605;SDS011;58173;52.500;5.494;2023-04-03T18:08:37;7.40;;;1.63;;
70605;SDS011;58173;52.500;5.494;2023-04-03T18:11:05;7.57;;;2.00;;
70605;SDS011;58173;52.500;5.494;2023-04-03T18:13:33;6.30;;;1.77;;
70605;SDS011;58173;52.500;5.494;2023-04-03T18:16:06;9.05;;;1.73;;
70605;SDS011;58173;52.500;5.494;2023-04-03T18:18:34;5.38;;;2.03;;
70605;SDS011;58173;52.500;5.494;2023-04-03T18:21:01;5.95;;;1.60;;
70605;SDS011;58173;52.500;5.494;2023-04-03T18:23:29;8.30;;;1.88;;
70605;SDS011;58173;52.500;5.494;2023-04-03T18:25:57;5.97;;;1.50;;
70605;SDS011;58173;52.500;5.494;2023-04-03T18:28:26;6.25;;;1.30;;
70605;SDS011;58173;52.500;5.494;2023-04-03T18:30:53;6.38;;;1.77;;
70605;SDS011;58173;52.500;5.494;2023-04-03T18:33:20;4.93;;;1.70;;
70605;SDS011;58173;52.500;5.494;2023-04-03T18:35:48;4.53;;;1.77;;
70605;SDS011;58173;52.500;5.494;2023-04-03T18:38:15;4.50;;;1.60;;
70605;SDS011;58173;52.500;5.494;2023-04-03T18:40:42;6.07;;;1.83;;
70605;SDS011;58173;52.500;5.494;2023-04-03T18:43:12;4.40;;;1.60;;
70605;SDS011;58173;52.500;5.494;2023-04-03T18:45:39;5.13;;;1.90;;
70605;SDS011;58173;52.500;5.494;2023-04-03T18:48:07;5.82;;;1.90;;
70605;SDS011;58173;52.500;5.494;2023-04-03T18:50:34;4.55;;;1.83;;
70605;SDS011;58173;52.500;5.494;2023-04-03T18:53:02;5.78;;;1.88;;
70605;SDS011;58173;52.500;5.494;2023-04-03T18:55:29;5.75;;;1.60;;
70605;SDS011;58173;52.500;5.494;2023-04-03T18:57:57;5.70;;;1.80;;
70605;SDS011;58173;52.500;5.494;2023-04-03T19:00:24;4.10;;;1.63;;
70605;SDS011;58173;52.500;5.494;2023-04-03T19:02:52;5.80;;;1.60;;
70605;SDS011;58173;52.500;5.494;2023-04-03T19:05:19;4.07;;;1.63;;
70605;SDS011;58173;52.500;5.494;2023-04-03T19:07:47;5.85;;;1.70;;
70605;SDS011;58173;52.500;5.494;2023-04-03T19:10:15;6.85;;;1.67;;
70605;SDS011;58173;52.500;5.494;2023-04-03T19:12:43;6.35;;;1.65;;
70605;SDS011;58173;52.500;5.494;2023-04-03T19:15:14;6.40;;;2.42;;
70605;SDS011;58173;52.500;5.494;2023-04-03T19:17:42;5.22;;;1.50;;
70605;SDS011;58173;52.500;5.494;2023-04-03T19:20:09;8.02;;;2.63;;
70605;SDS011;58173;52.500;5.494;2023-04-03T19:22:37;6.50;;;2.00;;
70605;SDS011;58173;52.500;5.494;2023-04-03T19:25:05;4.55;;;1.58;;
70605;SDS011;58173;52.500;5.494;2023-04-03T19:27:33;6.45;;;1.70;;
70605;SDS011;58173;52.500;5.494;2023-04-03T19:30:00;4.32;;;1.75;;
70605;SDS011;58173;52.500;5.494;2023-04-03T19:32:28;4.93;;;1.90;;
70605;SDS011;58173;52.500;5.494;2023-04-03T19:34:58;6.00;;;2.22;;
70605;SDS011;58173;52.500;5.494;2023-04-03T19:37:26;7.70;;;2.20;;
70605;SDS011;58173;52.500;5.494;2023-04-03T19:39:53;5.65;;;2.00;;
70605;SDS011;58173;52.500;5.494;2023-04-03T19:42:21;6.63;;;1.70;;
70605;SDS011;58173;52.500;5.494;2023-04-03T19:44:48;5.45;;;1.77;;
70605;SDS011;58173;52.500;5.494;2023-04-03T19:47:15;7.15;;;2.20;;
70605;SDS011;58173;52.500;5.494;2023-04-03T19:49:44;7.75;;;2.15;;
70605;SDS011;58173;52.500;5.494;2023-04-03T19:52:11;6.72;;;2.17;;
70605;SDS011;58173;52.500;5.494;2023-04-03T19:54:38;6.40;;;1.98;;
70605;SDS011;58173;52.500;5.494;2023-04-03T19:57:06;8.02;;;2.70;;
70605;SDS011;58173;52.500;5.494;2023-04-03T19:59:34;7.00;;;2.60;;
70605;SDS011;58173;52.500;5.494;2023-04-03T20:02:01;6.53;;;2.30;;
70605;SDS011;58173;52.500;5.494;2023-04-03T20:04:28;6.90;;;2.00;;
70605;SDS011;58173;52.500;5.494;2023-04-03T20:06:55;5.07;;;1.98;;
70605;SDS011;58173;52.500;5.494;2023-04-03T20:09:22;8.60;;;2.42;;
70605;SDS011;58173;52.500;5.494;2023-04-03T20:11:49;7.53;;;2.25;;
70605;SDS011;58173;52.500;5.494;2023-04-03T20:14:19;4.43;;;1.80;;
70605;SDS011;58173;52.500;5.494;2023-04-03T20:16:46;5.40;;;2.10;;
70605;SDS011;58173;52.500;5.494;2023-04-03T20:19:13;4.30;;;1.60;;
70605;SDS011;58173;52.500;5.494;2023-04-03T20:21:42;5.57;;;1.80;;
70605;SDS011;58173;52.500;5.494;2023-04-03T20:24:09;5.78;;;1.58;;
70605;SDS011;58173;52.500;5.494;2023-04-03T20:26:39;7.78;;;1.80;;
70605;SDS011;58173;52.500;5.494;2023-04-03T20:29:11;5.95;;;1.80;;
70605;SDS011;58173;52.500;5.494;2023-04-03T20:31:39;6.43;;;1.90;;
70605;SDS011;58173;52.500;5.494;2023-04-03T20:34:07;3.83;;;1.60;;
70605;SDS011;58173;52.500;5.494;2023-04-03T20:36:34;5.90;;;1.60;;
70605;SDS011;58173;52.500;5.494;2023-04-03T20:39:03;4.95;;;1.50;;
70605;SDS011;58173;52.500;5.494;2023-04-03T20:41:30;6.20;;;1.48;;
70605;SDS011;58173;52.500;5.494;2023-04-03T20:44:00;5.82;;;1.75;;
70605;SDS011;58173;52.500;5.494;2023-04-03T20:46:27;5.00;;;1.60;;
70605;SDS011;58173;52.500;5.494;2023-04-03T20:49:15;4.43;;;1.60;;
70605;SDS011;58173;52.500;5.494;2023-04-03T20:51:42;4.32;;;1.60;;
70605;SDS011;58173;52.500;5.494;2023-04-03T20:54:10;5.25;;;1.77;;
70605;SDS011;58173;52.500;5.494;2023-04-03T20:56:38;7.00;;;2.00;;
70605;SDS011;58173;52.500;5.494;2023-04-03T20:59:05;7.95;;;2.30;;
70605;SDS011;58173;52.500;5.494;2023-04-03T21:01:32;8.48;;;2.30;;
70605;SDS011;58173;52.500;5.494;2023-04-03T21:04:03;7.00;;;2.10;;
70605;SDS011;58173;52.500;5.494;2023-04-03T21:20:51;4.28;;;1.48;;
70605;SDS011;58173;52.500;5.494;2023-04-03T21:23:18;2.92;;;1.40;;
70605;SDS011;58173;52.500;5.494;2023-04-03T21:25:45;3.60;;;1.30;;
70605;SDS011;58173;52.500;5.494;2023-04-03T21:28:14;4.03;;;1.25;;
70605;SDS011;58173;52.500;5.494;2023-04-03T21:30:42;4.72;;;1.50;;
70605;SDS011;58173;52.500;5.494;2023-04-03T21:33:09;4.18;;;1.17;;
70605;SDS011;58173;52.500;5.494;2023-04-03T21:35:38;4.93;;;1.13;;
70605;SDS011;58173;52.500;5.494;2023-04-03T21:38:05;4.25;;;1.20;;
70605;SDS011;58173;52.500;5.494;2023-04-03T21:40:32;3.97;;;1.23;;
70605;SDS011;58173;52.500;5.494;2023-04-03T21:42:59;3.75;;;1.20;;
70605;SDS011;58173;52.500;5.494;2023-04-03T21:45:27;6.22;;;1.40;;
70605;SDS011;58173;52.500;5.494;2023-04-03T21:47:54;7.55;;;1.50;;
70605;SDS011;58173;52.500;5.494;2023-04-03T21:50:21;5.28;;;1.50;;
70605;SDS011;58173;52.500;5.494;2023-04-03T21:52:51;6.57;;;1.35;;
70605;SDS011;58173;52.500;5.494;2023-04-03T21:55:19;4.07;;;1.33;;
70605;SDS011;58173;52.500;5.494;2023-04-03T21:57:49;4.30;;;1.40;;
70605;SDS011;58173;52.500;5.494;2023-04-03T22:00:19;4.22;;;1.17;;
70605;SDS011;58173;52.500;5.494;2023-04-03T22:02:46;4.32;;;1.20;;
70605;SDS011;58173;52.500;5.494;2023-04-03T22:05:18;5.97;;;1.30;;
70605;SDS011;58173;52.500;5.494;2023-04-03T22:07:45;4.72;;;1.40;;
70605;SDS011;58173;52.500;5.494;2023-04-03T22:10:12;3.78;;;1.23;;
70605;SDS011;58173;52.500;5.494;2023-04-03T22:12:40;4.25;;;1.33;;
70605;SDS011;58173;52.500;5.494;2023-04-03T22:15:08;5.72;;;1.20;;
70605;SDS011;58173;52.500;5.494;2023-04-03T22:17:35;4.18;;;1.50;;
70605;SDS011;58173;52.500;5.494;2023-04-03T22:20:03;3.53;;;1.20;;
70605;SDS011;58173;52.500;5.494;2023-04-03T22:22:30;3.25;;;1.17;;
70605;SDS011;58173;52.500;5.494;2023-04-03T22:24:57;4.63;;;1.40;;
70605;SDS011;58173;52.500;5.494;2023-04-03T22:27:26;8.90;;;1.50;;
70605;SDS011;58173;52.500;5.494;2023-04-03T22:29:53;5.28;;;1.45;;
70605;SDS011;58173;52.500;5.494;2023-04-03T22:32:20;4.40;;;1.50;;
70605;SDS011;58173;52.500;5.494;2023-04-03T22:34:47;6.72;;;1.70;;
70605;SDS011;58173;52.500;5.494;2023-04-03T22:37:14;4.47;;;1.33;;
70605;SDS011;58173;52.500;5.494;2023-04-03T22:39:42;5.50;;;1.75;;
70605;SDS011;58173;52.500;5.494;2023-04-03T22:42:09;5.25;;;1.40;;
70605;SDS011;58173;52.500;5.494;2023-04-03T22:44:36;5.10;;;1.60;;
70605;SDS011;58173;52.500;5.494;2023-04-03T22:47:03;3.92;;;1.35;;
70605;SDS011;58173;52.500;5.494;2023-04-03T22:49:31;6.13;;;1.33;;
70605;SDS011;58173;52.500;5.494;2023-04-03T22:51:58;5.93;;;1.65;;
70605;SDS011;58173;52.500;5.494;2023-04-03T22:54:25;6.45;;;1.70;;
70605;SDS011;58173;52.500;5.494;2023-04-03T22:56:52;5.85;;;1.83;;
70605;SDS011;58173;52.500;5.494;2023-04-03T22:59:19;5.05;;;1.45;;
70605;SDS011;58173;52.500;5.494;2023-04-03T23:01:47;5.03;;;1.52;;
70605;SDS011;58173;52.500;5.494;2023-04-03T23:04:14;5.22;;;1.60;;
70605;SDS011;58173;52.500;5.494;2023-04-03T23:06:41;5.68;;;1.90;;
70605;SDS011;58173;52.500;5.494;2023-04-03T23:09:08;6.57;;;1.75;;
70605;SDS011;58173;52.500;5.494;2023-04-03T23:11:35;6.88;;;2.00;;
70605;SDS011;58173;52.500;5.494;2023-04-03T23:14:03;6.72;;;2.00;;
70605;SDS011;58173;52.500;5.494;2023-04-03T23:16:30;5.15;;;1.75;;
70605;SDS011;58173;52.500;5.494;2023-04-03T23:18:58;7.10;;;2.15;;
70605;SDS011;58173;52.500;5.494;2023-04-03T23:21:25;6.78;;;1.90;;
70605;SDS011;58173;52.500;5.494;2023-04-03T23:23:53;5.95;;;1.90;;
70605;SDS011;58173;52.500;5.494;2023-04-03T23:26:20;5.75;;;1.90;;
70605;SDS011;58173;52.500;5.494;2023-04-03T23:28:47;6.38;;;1.95;;
70605;SDS011;58173;52.500;5.494;2023-04-03T23:31:14;5.78;;;1.95;;
70605;SDS011;58173;52.500;5.494;2023-04-03T23:33:41;7.53;;;2.38;;
70605;SDS011;58173;52.500;5.494;2023-04-03T23:36:09;7.60;;;2.00;;
70605;SDS011;58173;52.500;5.494;2023-04-03T23:38:38;6.28;;;2.17;;
70605;SDS011;58173;52.500;5.494;2023-04-03T23:41:05;5.50;;;1.80;;
70605;SDS011;58173;52.500;5.494;2023-04-03T23:43:32;6.15;;;2.00;;
70605;SDS011;58173;52.500;5.494;2023-04-03T23:46:00;6.22;;;2.00;;
70605;SDS011;58173;52.500;5.494;2023-04-03T23:48:27;7.07;;;2.10;;
70605;SDS011;58173;52.500;5.494;2023-04-03T23:50:54;6.78;;;2.17;;
70605;SDS011;58173;52.500;5.494;2023-04-03T23:53:21;7.97;;;2.20;;
70605;SDS011;58173;52.500;5.494;2023-04-03T23:55:49;5.47;;;2.05;;
70605;SDS011;58173;52.500;5.494;2023-04-03T23:58:16;6.18;;;2.30;;
